Time;durP1;ratioP1;P1;durP2;ratioP2;P2;SDS_P1;SDS_P2;PMS_P1;PMS_P2;Temp;Humidity;BMP_temperature;BMP_pressure;BME280_temperature;BME280_humidity;BME280_pressure;Samples;Min_cycle;Max_cycle;Signal;HPM_P1;HPM_P2
2022/06/22 00:02:13;;;;;;;18.58;3.90;;;;;;;20.55;68.30;92635.31;2041931;70;20281;-74
2022/06/22 00:04:47;;;;;;;16.20;3.88;;;;;;;20.56;68.59;92633.91;2045149;70;20162;-75
2022/06/22 00:07:17;;;;;;;20.48;4.93;;;;;;;20.48;69.14;92625.88;2045039;70;20206;-75
2022/06/22 00:09:43;;;;;;;18.80;3.70;;;;;;;20.53;68.77;92623.84;2047727;70;20535;-76
2022/06/22 00:12:25;;;;;;;16.67;4.30;;;;;;;20.66;67.60;92630.53;2045201;70;20213;-76
2022/06/22 00:14:55;;;;;;;19.73;4.00;;;;;;;20.27;70.17;92635.34;2044951;70;20139;-75
2022/06/22 00:17:35;;;;;;;12.93;3.60;;;;;;;20.52;69.10;92636.66;2061427;69;20664;-76
2022/06/22 00:20:13;;;;;;;21.02;4.20;;;;;;;20.28;70.75;92631.81;2048472;70;20142;-76
2022/06/22 00:22:52;;;;;;;14.13;3.75;;;;;;;20.34;70.28;92639.78;2048250;70;20159;-76
2022/06/22 00:25:34;;;;;;;19.70;4.35;;;;;;;20.45;70.02;92644.34;2048406;70;20655;-76
2022/06/22 00:28:31;;;;;;;18.90;3.85;;;;;;;20.43;69.58;92635.00;2046164;70;20142;-77
2022/06/22 00:31:21;;;;;;;17.10;4.00;;;;;;;20.16;70.57;92634.38;2044237;70;20203;-74
2022/06/22 00:34:11;;;;;;;14.90;4.03;;;;;;;20.27;70.05;92641.78;2042030;70;20132;-74
2022/06/22 00:36:42;;;;;;;13.60;3.97;;;;;;;20.13;70.94;92638.59;2045133;70;20199;-74
2022/06/22 00:39:25;;;;;;;19.98;3.67;;;;;;;20.28;69.90;92643.22;2044974;70;20225;-74
2022/06/22 00:42:15;;;;;;;19.25;3.92;;;;;;;20.24;70.34;92639.56;2045099;70;20260;-74
2022/06/22 00:44:50;;;;;;;20.05;3.90;;;;;;;20.05;71.41;92635.53;2045043;70;20142;-74
2022/06/22 00:47:36;;;;;;;16.20;3.65;;;;;;;19.68;72.99;92634.59;2045055;70;20240;-75
2022/06/22 00:50:17;;;;;;;19.98;3.47;;;;;;;20.15;70.30;92632.19;2045109;70;20157;-76
2022/06/22 00:53:04;;;;;;;14.65;4.10;;;;;;;19.96;70.86;92623.16;2045091;70;20135;-75
2022/06/22 00:55:35;;;;;;;14.13;3.65;;;;;;;19.76;71.80;92628.38;2047392;70;20240;-75
2022/06/22 00:58:32;;;;;;;20.20;3.53;;;;;;;19.81;71.85;92621.38;2045057;70;20242;-75
2022/06/22 01:01:06;;;;;;;17.70;3.83;;;;;;;19.87;70.20;92621.50;2045092;70;20232;-75
2022/06/22 01:03:39;;;;;;;19.00;3.88;;;;;;;19.85;70.43;92620.75;2045013;70;20242;-75
2022/06/22 01:06:21;;;;;;;16.25;4.28;;;;;;;20.07;69.33;92618.44;2044741;70;20157;-74
2022/06/22 01:09:05;;;;;;;20.23;4.43;;;;;;;19.81;70.84;92621.38;2045098;69;20178;-74
2022/06/22 01:12:18;;;;;;;17.08;3.40;;;;;;;19.66;71.02;92611.00;2045317;70;20166;-75
2022/06/22 01:15:28;;;;;;;16.73;4.03;;;;;;;19.71;70.03;92595.41;2045108;70;20167;-76
2022/06/22 01:18:06;;;;;;;15.85;3.60;;;;;;;19.73;70.03;92593.31;2045028;70;20154;-75
2022/06/22 01:20:50;;;;;;;16.05;3.90;;;;;;;19.76;69.39;92591.25;2044903;69;20155;-75
2022/06/22 01:23:34;;;;;;;14.43;3.95;;;;;;;19.72;69.52;92580.44;2047093;70;20190;-75
2022/06/22 01:26:23;;;;;;;14.38;3.83;;;;;;;19.55;70.15;92562.16;2048295;70;20158;-75
2022/06/22 01:29:07;;;;;;;13.60;3.55;;;;;;;19.73;68.00;92550.47;2043242;70;20135;-75
2022/06/22 01:31:34;;;;;;;18.73;4.13;;;;;;;19.61;69.75;92553.06;2047942;70;20524;-74
2022/06/22 01:34:01;;;;;;;13.68;3.72;;;;;;;19.44;70.68;92556.88;2048320;70;20147;-75
2022/06/22 01:36:33;;;;;;;16.40;3.70;;;;;;;19.14;71.68;92560.38;2048444;70;20131;-75
2022/06/22 01:39:01;;;;;;;14.70;3.72;;;;;;;19.36;70.62;92562.38;2048256;70;20523;-75
2022/06/22 01:42:16;;;;;;;19.02;3.90;;;;;;;19.29;70.60;92572.91;2048027;70;20222;-73
2022/06/22 01:45:20;;;;;;;18.65;3.50;;;;;;;19.02;71.42;92592.16;2047588;70;20246;-74
2022/06/22 01:47:57;;;;;;;10.73;3.63;;;;;;;18.78;73.91;92589.34;2040761;70;20171;-74
2022/06/22 01:50:33;;;;;;;21.58;4.00;;;;;;;19.02;72.17;92589.31;2044863;70;20150;-76
2022/06/22 01:53:02;;;;;;;13.90;3.90;;;;;;;19.05;71.83;92602.22;2044983;70;20169;-75
2022/06/22 01:55:33;;;;;;;15.35;3.95;;;;;;;19.01;72.21;92619.25;2044704;70;20234;-75
2022/06/22 01:57:59;;;;;;;14.93;3.53;;;;;;;19.10;71.59;92613.72;2044708;70;20194;-75
2022/06/22 02:00:27;;;;;;;14.40;3.72;;;;;;;19.13;71.04;92618.09;2044665;69;20173;-75
2022/06/22 02:03:00;;;;;;;16.88;3.40;;;;;;;19.09;71.33;92610.16;2044579;70;20245;-75
2022/06/22 02:05:55;;;;;;;18.20;3.92;;;;;;;19.07;70.49;92607.25;2044776;70;20285;-75
2022/06/22 02:08:34;;;;;;;18.90;4.38;;;;;;;19.05;71.23;92607.91;2044936;70;20163;-75
2022/06/22 02:11:11;;;;;;;15.82;4.00;;;;;;;19.22;70.88;92591.25;2046102;70;20235;-75
2022/06/22 02:13:47;;;;;;;17.17;3.60;;;;;;;19.04;72.26;92592.19;2047542;70;20313;-75
2022/06/22 02:16:31;;;;;;;16.58;3.95;;;;;;;18.76;72.72;92594.25;2048462;70;20142;-75
2022/06/22 02:18:57;;;;;;;16.23;4.25;;;;;;;18.94;71.85;92606.19;2044807;70;20158;-75
2022/06/22 02:21:24;;;;;;;13.35;3.97;;;;;;;19.14;70.60;92606.00;2047750;70;20193;-75
2022/06/22 02:23:57;;;;;;;19.33;4.05;;;;;;;19.00;71.83;92614.91;2048127;70;20158;-76
2022/06/22 02:26:48;;;;;;;14.95;3.60;;;;;;;18.95;71.88;92612.63;2048119;70;20163;-75
2022/06/22 02:29:17;;;;;;;10.73;3.42;;;;;;;18.99;71.05;92604.19;2045289;70;20159;-75
2022/06/22 02:31:43;;;;;;;19.35;3.70;;;;;;;18.91;71.90;92601.81;2046217;70;20163;-75
2022/06/22 02:34:10;;;;;;;15.63;4.13;;;;;;;18.97;71.62;92592.72;2048555;70;20146;-75
2022/06/22 02:36:42;;;;;;;16.23;3.50;;;;;;;19.13;70.00;92587.44;2061232;69;20178;-75
2022/06/22 02:39:12;;;;;;;16.02;3.58;;;;;;;19.05;71.20;92590.06;2047739;70;20594;-75
2022/06/22 02:44:33;;;;;;;14.65;3.70;;;;;;;18.98;71.29;92600.59;2045241;70;20167;-76
2022/06/22 02:47:09;;;;;;;14.27;3.45;;;;;;;18.92;71.60;92593.97;2045088;70;20159;-76
2022/06/22 02:49:39;;;;;;;11.05;3.50;;;;;;;18.84;71.94;92599.47;2045391;70;20154;-75
2022/06/22 02:52:10;;;;;;;17.83;3.83;;;;;;;18.67;72.92;92601.81;2045471;70;20150;-75
2022/06/22 02:54:55;;;;;;;18.67;4.13;;;;;;;18.85;71.88;92601.66;2045199;70;20194;-75
2022/06/22 02:57:42;;;;;;;18.23;3.65;;;;;;;18.91;71.61;92607.50;2045366;70;20638;-75
2022/06/22 03:00:09;;;;;;;11.32;3.47;;;;;;;18.86;72.09;92590.97;2045152;70;20150;-75
2022/06/22 03:02:36;;;;;;;17.38;3.78;;;;;;;18.94;70.52;92585.50;2045341;70;20583;-75
2022/06/22 03:05:05;;;;;;;17.05;3.85;;;;;;;18.75;72.32;92578.56;2045338;70;20183;-75
2022/06/22 03:07:36;;;;;;;16.52;3.80;;;;;;;18.87;70.78;92573.19;2045090;70;20147;-76
2022/06/22 03:10:04;;;;;;;16.02;3.70;;;;;;;18.85;71.81;92569.56;2045281;70;20146;-76
2022/06/22 03:12:31;;;;;;;19.48;3.95;;;;;;;18.56;72.91;92573.69;2045557;70;20139;-76
2022/06/22 03:15:05;;;;;;;14.60;3.70;;;;;;;18.64;72.64;92574.63;2045531;70;20592;-76
2022/06/22 03:17:38;;;;;;;13.90;3.78;;;;;;;18.69;72.28;92572.66;2045713;70;20579;-76
2022/06/22 03:20:12;;;;;;;16.10;3.83;;;;;;;18.75;71.83;92584.25;2045437;70;20238;-77
2022/06/22 03:22:44;;;;;;;14.55;3.90;;;;;;;18.75;71.82;92587.84;2045877;70;20143;-76
2022/06/22 03:25:19;;;;;;;;;;;;;;;18.76;71.77;92588.56;2045900;70;20179;-74
2022/06/22 03:27:51;;;;;;;16.48;3.70;;;;;;;18.78;71.65;92577.94;2045295;70;20051;-74
2022/06/22 03:30:24;;;;;;;17.95;3.80;;;;;;;18.74;71.79;92588.50;2045468;70;20135;-74
2022/06/22 03:32:57;;;;;;;15.07;3.78;;;;;;;18.70;72.03;92585.53;2045601;70;20181;-75
2022/06/22 03:35:45;;;;;;;17.83;4.18;;;;;;;18.64;72.46;92582.47;2046705;70;20150;-75
2022/06/22 03:38:19;;;;;;;13.45;3.97;;;;;;;18.59;72.52;92580.91;2045625;70;20147;-76
2022/06/22 03:40:55;;;;;;;16.08;4.28;;;;;;;18.69;71.45;92593.38;2047169;70;20224;-74
2022/06/22 03:43:21;;;;;;;12.85;3.97;;;;;;;18.65;71.51;92601.78;2048747;70;20158;-75
2022/06/22 03:45:51;;;;;;;12.88;3.67;;;;;;;18.58;72.62;92602.25;2048474;69;20569;-74
2022/06/22 03:48:16;;;;;;;13.23;3.75;;;;;;;18.64;71.57;92600.28;2048811;70;20162;-75
2022/06/22 03:50:50;;;;;;;13.75;4.00;;;;;;;18.69;71.64;92596.22;2048849;70;20170;-75
2022/06/22 03:53:33;;;;;;;13.05;3.38;;;;;;;18.59;72.17;92584.47;2048742;70;20201;-75
2022/06/22 03:56:04;;;;;;;16.83;3.55;;;;;;;18.68;72.77;92585.44;2048783;70;20162;-75
2022/06/22 03:58:29;;;;;;;23.25;4.22;;;;;;;18.73;72.25;92598.44;2048394;70;20201;-76
2022/06/22 04:00:55;;;;;;;12.65;3.85;;;;;;;18.80;71.32;92600.09;2047897;70;20147;-75
2022/06/22 04:03:21;;;;;;;13.80;3.65;;;;;;;18.73;72.44;92595.59;2045366;70;20582;-76
2022/06/22 04:05:52;;;;;;;15.65;4.07;;;;;;;18.66;72.83;92591.09;2045380;69;20153;-75
2022/06/22 04:08:37;;;;;;;18.33;4.05;;;;;;;18.81;71.86;92586.53;2045482;70;20147;-75
2022/06/22 04:11:10;;;;;;;17.48;3.90;;;;;;;18.78;72.01;92585.75;2048635;70;20146;-75
2022/06/22 04:14:21;;;;;;;12.95;3.80;;;;;;;18.77;72.24;92582.16;2048029;70;20766;-75
2022/06/22 04:16:54;;;;;;;13.38;3.75;;;;;;;18.83;71.66;92580.88;2048664;70;20655;-75
2022/06/22 04:19:29;;;;;;;19.55;4.25;;;;;;;18.81;72.38;92572.28;2048586;70;20635;-75
2022/06/22 04:22:07;;;;;;;13.15;4.00;;;;;;;18.92;71.10;92577.63;2048784;70;20139;-75
2022/06/22 04:24:42;;;;;;;19.80;3.88;;;;;;;18.87;72.35;92567.47;2048430;70;20208;-75
2022/06/22 04:27:24;;;;;;;16.67;3.88;;;;;;;18.94;71.98;92566.25;2048707;70;20153;-75
2022/06/22 04:29:57;;;;;;;17.87;4.13;;;;;;;18.91;72.47;92559.03;2048550;70;20620;-75
2022/06/22 04:32:54;;;;;;;16.48;3.70;;;;;;;18.98;72.52;92559.94;2048954;70;20147;-75
2022/06/22 04:35:42;;;;;;;14.43;4.10;;;;;;;18.77;72.65;92550.81;2049569;70;20139;-75
2022/06/22 04:38:32;;;;;;;17.63;3.97;;;;;;;18.93;72.36;92561.94;2048209;70;20139;-74
2022/06/22 04:41:04;;;;;;;16.90;3.55;;;;;;;19.11;71.49;92569.56;2046858;69;20216;-75
2022/06/22 04:43:30;;;;;;;19.42;4.68;;;;;;;19.10;71.95;92580.22;2045725;70;20191;-75
2022/06/22 04:45:57;;;;;;;15.85;4.15;;;;;;;19.10;72.34;92582.34;2045415;70;20151;-75
2022/06/22 04:48:35;;;;;;;17.65;4.25;;;;;;;18.70;73.73;92580.56;2045650;70;20157;-75
2022/06/22 04:51:04;;;;;;;14.68;4.20;;;;;;;19.00;73.03;92585.66;2045447;70;20559;-74
2022/06/22 04:53:41;;;;;;;19.33;3.83;;;;;;;19.28;72.13;92583.56;2045130;70;20244;-76
2022/06/22 04:56:17;;;;;;;17.60;4.40;;;;;;;19.32;71.85;92600.06;2045141;70;20624;-77
2022/06/22 04:58:47;;;;;;;16.20;4.30;;;;;;;19.47;70.61;92604.78;2041930;70;20155;-76
2022/06/22 05:01:21;;;;;;;17.00;4.30;;;;;;;19.28;71.95;92580.00;2045214;70;20151;-75
2022/06/22 05:03:48;;;;;;;19.77;4.38;;;;;;;19.49;69.46;92581.97;2045199;70;20543;-75
2022/06/22 05:06:27;;;;;;;13.68;3.42;;;;;;;19.52;70.07;92592.06;2045345;70;20150;-75
2022/06/22 05:09:00;;;;;;;20.92;4.35;;;;;;;19.57;70.31;92586.47;2046340;70;20603;-75
2022/06/22 05:11:32;;;;;;;11.90;3.95;;;;;;;19.72;68.96;92600.44;2048507;70;20166;-76
2022/06/22 05:14:00;;;;;;;18.35;3.60;;;;;;;19.77;69.93;92592.69;2048495;70;20139;-75
2022/06/22 05:16:30;;;;;;;16.25;3.83;;;;;;;19.88;67.13;92596.53;2048396;70;20269;-75
2022/06/22 05:18:58;;;;;;;28.60;4.35;;;;;;;19.82;68.76;92582.84;2045343;70;20432;-76
2022/06/22 05:21:33;;;;;;;17.90;4.53;;;;;;;19.70;69.53;92576.81;2045374;70;20123;-75
2022/06/22 05:24:10;;;;;;;19.13;4.88;;;;;;;19.82;69.78;92579.97;2042059;70;20220;-76
2022/06/22 05:26:36;;;;;;;13.98;4.38;;;;;;;19.82;70.68;92573.53;2045493;70;20187;-75
2022/06/22 05:29:09;;;;;;;11.43;3.80;;;;;;;19.76;71.48;92574.84;2046566;70;20225;-74
2022/06/22 05:31:39;;;;;;;12.57;4.57;;;;;;;19.77;71.78;92569.84;2045469;70;20226;-76
2022/06/22 05:34:12;;;;;;;13.05;4.18;;;;;;;19.86;70.39;92567.94;2048626;70;20157;-76
2022/06/22 05:36:43;;;;;;;14.07;4.15;;;;;;;19.86;70.69;92567.94;2049604;69;20739;-74
2022/06/22 05:39:10;;;;;;;15.73;3.97;;;;;;;19.96;70.44;92573.88;2047211;70;20158;-75
2022/06/22 05:41:40;;;;;;;16.58;4.10;;;;;;;19.88;71.04;92573.69;2048168;70;20222;-73
2022/06/22 05:44:11;;;;;;;13.27;4.03;;;;;;;19.83;72.14;92569.28;2047062;70;20143;-74
2022/06/22 05:46:40;;;;;;;19.38;4.45;;;;;;;19.84;72.28;92567.84;2048158;70;20194;-74
2022/06/22 05:49:14;;;;;;;11.68;3.70;;;;;;;19.88;71.08;92574.41;2046265;70;20238;-75
2022/06/22 05:51:58;;;;;;;17.85;4.68;;;;;;;19.79;71.88;92564.19;2045190;70;20135;-74
2022/06/22 05:54:32;;;;;;;10.82;3.70;;;;;;;19.78;72.72;92557.75;2045204;70;20182;-75
2022/06/22 05:57:29;;;;;;;14.68;4.40;;;;;;;19.95;71.79;92558.88;2045055;70;20201;-74
2022/06/22 06:00:10;;;;;;;15.52;4.40;;;;;;;20.01;72.65;92567.56;2047787;70;20153;-75
2022/06/22 06:02:57;;;;;;;17.92;4.38;;;;;;;20.07;72.03;92572.72;2048247;70;20515;-74
2022/06/22 06:05:34;;;;;;;16.63;4.55;;;;;;;20.22;72.15;92573.78;2042073;70;20170;-74
2022/06/22 06:08:02;;;;;;;14.90;3.95;;;;;;;20.34;70.90;92581.88;2042476;70;20157;-75
2022/06/22 06:10:35;;;;;;;15.88;4.75;;;;;;;20.34;70.78;92579.75;2048156;70;20608;-75
2022/06/22 06:13:50;;;;;;;12.00;4.35;;;;;;;20.58;68.04;92590.34;2049001;70;20139;-74
2022/06/22 06:16:26;;;;;;;24.45;5.30;;;;;;;20.71;68.83;92586.31;2051584;70;20150;-75
2022/06/22 06:18:57;;;;;;;17.38;4.63;;;;;;;20.80;68.73;92585.81;2051575;70;20632;-75
2022/06/22 06:21:31;;;;;;;22.00;5.03;;;;;;;20.99;67.45;92584.06;2054400;69;20229;-75
2022/06/22 06:24:21;;;;;;;20.42;4.93;;;;;;;21.14;67.89;92581.47;2053981;70;20582;-74
2022/06/22 06:29:49;;;;;;;18.67;5.50;;;;;;;21.07;67.67;92572.03;2052940;70;20180;-73
2022/06/22 06:32:23;;;;;;;11.85;4.20;;;;;;;21.16;66.41;92561.47;2053440;69;20162;-74
2022/06/22 06:35:01;;;;;;;20.90;4.93;;;;;;;21.14;63.41;92555.72;2054470;70;20150;-73
2022/06/22 06:37:40;;;;;;;19.25;4.70;;;;;;;21.16;66.01;92558.59;2054230;69;20196;-74
2022/06/22 06:40:24;;;;;;;15.57;4.53;;;;;;;21.31;64.38;92555.38;2051467;70;21098;-73
2022/06/22 06:43:03;;;;;;;17.17;4.78;;;;;;;21.18;64.85;92558.66;2054267;69;20248;-73
2022/06/22 06:45:28;;;;;;;20.55;4.43;;;;;;;21.10;64.75;92561.34;2054049;70;20219;-73
2022/06/22 06:48:01;;;;;;;15.27;5.03;;;;;;;21.27;64.86;92555.25;2054247;69;20236;-73
2022/06/22 06:50:35;;;;;;;15.65;4.75;;;;;;;21.43;64.02;92546.25;2054150;69;20165;-73
2022/06/22 06:53:35;;;;;;;16.45;4.25;;;;;;;21.54;64.38;92550.78;2048425;69;20138;-74
2022/06/22 06:56:07;;;;;;;18.75;4.20;;;;;;;21.56;64.61;92544.34;2045817;70;20162;-74
2022/06/22 06:58:36;;;;;;;17.83;4.00;;;;;;;21.73;62.67;92539.63;2045742;70;20604;-74
2022/06/22 07:01:04;;;;;;;19.38;4.68;;;;;;;21.90;63.20;92540.59;2046602;70;20162;-74
2022/06/22 07:03:39;;;;;;;14.23;4.28;;;;;;;22.06;63.25;92527.25;2045900;70;20147;-73
2022/06/22 07:06:05;;;;;;;15.90;4.60;;;;;;;22.17;63.89;92536.75;2048667;70;20157;-73
2022/06/22 07:08:44;;;;;;;15.73;4.30;;;;;;;22.13;62.42;92533.84;2048817;70;20539;-74
2022/06/22 07:11:18;;;;;;;16.60;4.75;;;;;;;22.24;60.28;92531.84;2047663;70;20166;-74
2022/06/22 07:13:50;;;;;;;13.65;3.70;;;;;;;22.21;60.12;92536.09;2044899;69;20174;-74
2022/06/22 07:16:20;;;;;;;19.67;4.40;;;;;;;22.35;59.10;92527.69;2046507;70;20611;-74
2022/06/22 07:18:53;;;;;;;17.20;3.63;;;;;;;22.51;61.27;92516.47;2045272;70;20235;-73
2022/06/22 07:21:22;;;;;;;17.75;3.92;;;;;;;22.68;61.15;92510.94;2048641;70;20197;-74
2022/06/22 07:23:51;;;;;;;15.68;4.28;;;;;;;21.98;60.80;92512.06;2048976;70;20158;-74
2022/06/22 07:26:26;;;;;;;18.50;4.45;;;;;;;22.22;60.04;92515.34;2049010;70;20239;-74
2022/06/22 07:29:12;;;;;;;22.40;4.70;;;;;;;22.55;59.66;92512.94;2046081;70;20163;-74
2022/06/22 07:31:45;;;;;;;20.85;4.55;;;;;;;22.86;58.05;92513.31;2045110;70;20153;-74
2022/06/22 07:34:30;;;;;;;22.50;5.07;;;;;;;23.10;58.88;92512.91;2048787;70;20142;-74
2022/06/22 07:37:08;;;;;;;16.40;4.32;;;;;;;22.71;58.39;92506.66;2044747;70;20158;-75
2022/06/22 07:39:46;;;;;;;20.85;4.80;;;;;;;22.13;59.96;92507.31;2045702;70;20222;-74
2022/06/22 07:42:12;;;;;;;24.15;4.82;;;;;;;23.12;58.33;92510.78;2045756;70;20157;-75
2022/06/22 07:44:39;;;;;;;18.77;4.10;;;;;;;23.10;57.81;92504.31;2042384;70;20158;-73
2022/06/22 07:47:14;;;;;;;22.73;5.05;;;;;;;23.21;59.02;92506.56;2045520;70;20201;-75
2022/06/22 07:49:47;;;;;;;17.05;4.55;;;;;;;23.34;56.52;92505.28;2045538;70;20158;-74
2022/06/22 07:52:21;;;;;;;20.02;4.28;;;;;;;23.14;57.85;92498.56;2045539;70;20239;-73
2022/06/22 07:54:53;;;;;;;19.17;4.65;;;;;;;23.21;59.39;92497.22;2049047;70;20196;-73
2022/06/22 07:57:34;;;;;;;17.38;4.53;;;;;;;23.28;58.59;92499.47;2048886;70;20142;-73
2022/06/22 08:00:18;;;;;;;18.67;4.40;;;;;;;23.34;57.65;92496.66;2048454;70;20146;-73
2022/06/22 08:02:59;;;;;;;20.13;4.35;;;;;;;23.35;59.09;92497.38;2048832;70;20604;-73
2022/06/22 08:05:30;;;;;;;17.05;4.60;;;;;;;23.32;58.53;92502.38;2048863;70;20147;-73
2022/06/22 08:08:04;;;;;;;24.10;4.82;;;;;;;23.37;57.02;92511.78;2045139;70;20612;-74
2022/06/22 08:10:36;;;;;;;27.88;4.22;;;;;;;22.97;56.26;92512.75;2048737;70;20167;-74
2022/06/22 08:13:07;;;;;;;18.27;4.60;;;;;;;23.23;56.10;92509.47;2048674;70;20239;-74
2022/06/22 08:16:11;;;;;;;19.58;4.72;;;;;;;22.61;58.25;92515.16;2048448;69;20142;-75
2022/06/22 08:18:37;;;;;;;20.52;4.70;;;;;;;22.95;56.96;92514.88;2047735;70;20194;-74
2022/06/22 08:21:04;;;;;;;18.85;4.07;;;;;;;22.91;57.34;92515.56;2044334;70;20150;-76
2022/06/22 08:23:35;;;;;;;19.15;4.13;;;;;;;23.03;57.85;92520.72;2041956;70;20143;-75
2022/06/22 08:26:04;;;;;;;20.55;4.63;;;;;;;23.08;58.87;92505.69;2045535;70;20163;-77
2022/06/22 08:28:34;;;;;;;17.13;4.30;;;;;;;23.11;61.21;92515.06;2045624;70;20609;-77
2022/06/22 08:31:01;;;;;;;15.45;3.85;;;;;;;23.18;59.48;92519.44;2047668;70;20147;-76
2022/06/22 08:33:44;;;;;;;18.33;4.78;;;;;;;23.15;60.59;92512.25;2045167;70;20229;-76
2022/06/22 08:36:13;;;;;;;20.75;4.57;;;;;;;23.16;58.67;92519.44;2048503;70;20501;-77
2022/06/22 08:39:04;;;;;;;18.80;4.50;;;;;;;23.14;60.23;92510.81;2048604;70;20153;-77
2022/06/22 08:41:49;;;;;;;14.95;4.13;;;;;;;23.11;59.51;92508.63;2048614;70;20150;-74
2022/06/22 08:44:28;;;;;;;21.63;4.47;;;;;;;23.21;58.56;92508.72;2048243;70;20238;-74
2022/06/22 08:47:25;;;;;;;20.20;4.05;;;;;;;23.03;61.08;92494.88;2048957;70;20592;-73
2022/06/22 08:50:21;;;;;;;15.77;4.03;;;;;;;23.14;60.87;92507.19;2048903;70;20146;-73
2022/06/22 08:52:47;;;;;;;16.92;3.83;;;;;;;23.21;62.61;92505.84;2045539;70;20198;-73
2022/06/22 08:55:48;;;;;;;15.73;4.20;;;;;;;23.14;62.80;92507.94;2045436;70;20229;-74
2022/06/22 08:58:46;;;;;;;16.95;4.28;;;;;;;23.07;62.28;92515.75;2053410;69;20154;-74
2022/06/22 09:01:21;;;;;;;18.73;4.63;;;;;;;23.07;62.78;92515.75;2048982;70;20602;-76
2022/06/22 09:04:11;;;;;;;15.02;4.78;;;;;;;23.28;60.83;92522.44;2048830;70;20147;-75
2022/06/22 09:07:05;;;;;;;18.67;4.10;;;;;;;23.24;63.94;92525.28;2048833;70;20171;-74
2022/06/22 09:09:42;;;;;;;17.25;4.10;;;;;;;23.17;63.44;92526.63;2048872;70;20146;-72
2022/06/22 09:13:06;;;;;;;18.40;4.60;;;;;;;23.13;60.40;92529.44;2045897;70;20150;-73
2022/06/22 09:15:53;;;;;;;19.50;4.30;;;;;;;22.61;59.30;92529.50;2050656;70;20177;-73
2022/06/22 09:18:46;;;;;;;16.27;4.68;;;;;;;23.12;60.66;92533.03;2050790;70;20292;-72
2022/06/22 09:21:31;;;;;;;;;;;;;;;23.05;59.62;92532.97;2050798;70;20296;-73
2022/06/22 09:24:06;;;;;;;17.08;4.40;;;;;;;23.21;60.18;92532.41;2050529;70;20680;-72
2022/06/22 09:26:47;;;;;;;14.02;4.03;;;;;;;23.32;59.39;92531.09;2050718;70;20145;-71
2022/06/22 09:29:13;;;;;;;29.73;5.30;;;;;;;23.14;62.36;92530.91;2047831;70;20177;-73
2022/06/22 09:31:44;;;;;;;17.38;3.97;;;;;;;23.18;60.99;92535.94;2050733;70;20229;-73
2022/06/22 09:34:45;;;;;;;19.15;4.57;;;;;;;23.26;61.49;92527.44;2047905;70;20606;-73
2022/06/22 09:37:37;;;;;;;23.15;4.15;;;;;;;23.12;60.00;92527.28;2047555;70;20154;-74
2022/06/22 09:40:32;;;;;;;18.23;4.63;;;;;;;23.04;59.06;92530.78;2047098;70;20158;-74
2022/06/22 09:43:10;;;;;;;21.02;4.63;;;;;;;22.80;59.82;92534.03;2047447;70;20619;-74
2022/06/22 09:45:36;;;;;;;16.92;4.70;;;;;;;22.65;59.91;92532.44;2048523;70;20236;-74
2022/06/22 09:48:22;;;;;;;15.85;4.45;;;;;;;22.95;61.72;92540.72;2050810;70;20611;-74
2022/06/22 09:51:02;;;;;;;12.95;3.97;;;;;;;22.88;60.71;92530.56;2039270;70;20140;-74
2022/06/22 09:53:33;;;;;;;19.75;4.90;;;;;;;22.89;62.11;92544.22;2034806;70;20285;-73
2022/06/22 09:56:23;;;;;;;17.07;4.10;;;;;;;22.73;61.77;92544.00;2050608;70;20146;-73
2022/06/22 09:59:25;;;;;;;13.95;4.50;;;;;;;22.76;63.13;92554.06;2050588;70;20130;-73
2022/06/22 10:02:00;;;;;;;17.60;3.88;;;;;;;22.74;61.79;92566.25;2050645;70;20549;-75
2022/06/22 10:04:45;;;;;;;17.73;4.50;;;;;;;22.73;64.66;92556.22;2050655;70;20508;-75
2022/06/22 10:07:43;;;;;;;15.38;4.72;;;;;;;22.68;63.14;92565.44;2037145;70;20169;-74
2022/06/22 10:10:23;;;;;;;15.30;4.28;;;;;;;22.70;65.20;92566.19;2045426;70;20229;-73
2022/06/22 10:12:57;;;;;;;15.50;4.70;;;;;;;22.70;65.58;92571.94;2048485;70;20566;-74
2022/06/22 10:15:45;;;;;;;16.95;4.57;;;;;;;22.53;65.97;92579.59;2048351;70;20603;-75
2022/06/22 10:18:40;;;;;;;16.77;4.28;;;;;;;22.53;65.58;92585.31;2048492;70;20130;-73
2022/06/22 10:21:19;;;;;;;17.00;4.40;;;;;;;22.65;63.56;92589.81;2047525;70;20202;-73
2022/06/22 10:24:14;;;;;;;18.02;4.65;;;;;;;22.45;65.56;92602.44;2045289;70;20186;-73
2022/06/22 10:26:55;;;;;;;15.60;4.28;;;;;;;22.23;66.56;92608.53;2045163;70;20143;-74
2022/06/22 10:29:32;;;;;;;13.75;4.40;;;;;;;22.27;64.73;92593.56;2044955;70;20561;-72
2022/06/22 10:32:18;;;;;;;17.55;4.35;;;;;;;22.32;66.29;92590.03;2041884;70;20197;-73
2022/06/22 10:35:02;;;;;;;18.13;4.63;;;;;;;22.24;67.60;92592.78;2044987;70;20579;-73
2022/06/22 10:37:50;;;;;;;19.00;4.43;;;;;;;22.39;66.57;92590.84;2041995;70;20212;-74
2022/06/22 10:47:09;;;;;;;14.93;4.15;;;;;;;22.58;66.45;92557.41;2048537;70;20142;-73
2022/06/22 10:49:56;;;;;;;18.35;4.32;;;;;;;22.71;67.28;92552.59;2045053;70;20225;-73
2022/06/22 10:52:25;;;;;;;19.80;3.80;;;;;;;22.78;67.71;92543.38;2048259;70;20154;-72
2022/06/22 10:55:13;;;;;;;18.92;4.78;;;;;;;23.12;65.67;92553.84;2048512;70;20158;-72
2022/06/22 10:57:46;;;;;;;13.63;3.80;;;;;;;23.40;65.33;92550.56;2048308;70;20174;-72
2022/06/22 11:00:36;;;;;;;15.05;4.40;;;;;;;23.69;60.93;92553.78;2048639;70;20151;-72
2022/06/22 11:03:20;;;;;;;15.63;4.55;;;;;;;23.55;62.47;92555.03;2048622;70;20166;-73
2022/06/22 11:06:22;;;;;;;16.75;4.55;;;;;;;23.39;62.17;92557.00;2048435;70;20238;-72
2022/06/22 11:09:21;;;;;;;17.58;4.82;;;;;;;22.06;67.73;92553.06;2035627;70;20251;-71
2022/06/22 11:11:59;;;;;;;25.05;5.10;;;;;;;22.14;68.77;92551.78;2048843;70;20165;-72
2022/06/22 11:14:44;;;;;;;14.63;4.70;;;;;;;22.43;67.18;92550.75;2048027;70;20158;-72
2022/06/22 11:17:36;;;;;;;20.98;4.82;;;;;;;22.06;68.61;92544.47;2048787;70;20189;-73
2022/06/22 11:20:04;;;;;;;17.65;4.78;;;;;;;22.43;68.78;92545.03;2047983;69;20243;-73
2022/06/22 11:22:46;;;;;;;18.38;4.68;;;;;;;22.68;67.08;92546.09;2048918;70;20154;-73
2022/06/22 11:31:23;;;;;;;;;;;;;;;23.23;65.98;92525.97;2045725;70;20648;-79
2022/06/22 11:33:54;;;;;;;15.20;4.78;;;;;;;23.42;66.06;92524.03;2046499;70;20047;-74
2022/06/22 11:36:31;;;;;;;16.17;4.68;;;;;;;23.47;64.43;92517.59;2048866;70;20173;-74
2022/06/22 11:39:07;;;;;;;16.88;4.95;;;;;;;23.46;66.08;92513.31;2048871;70;20665;-74
2022/06/22 11:41:53;;;;;;;18.05;4.65;;;;;;;23.54;66.69;92519.09;2047787;70;20509;-74
2022/06/22 11:44:37;;;;;;;15.30;4.68;;;;;;;23.52;67.29;92518.38;2046864;70;20150;-74
2022/06/22 11:47:23;;;;;;;20.48;4.13;;;;;;;23.62;66.40;92509.13;2048807;70;20620;-74
2022/06/22 11:49:52;;;;;;;18.35;4.72;;;;;;;23.74;65.15;92503.53;2048388;70;20620;-75
2022/06/22 11:52:53;;;;;;;13.75;4.40;;;;;;;23.92;63.76;92495.06;2045604;70;20158;-76
2022/06/22 11:55:21;;;;;;;14.10;4.30;;;;;;;24.28;61.21;92488.09;2045698;70;20150;-72
2022/06/22 11:58:05;;;;;;;18.52;4.88;;;;;;;24.52;58.30;92481.81;2042258;70;20139;-77
2022/06/22 12:00:49;;;;;;;14.05;4.50;;;;;;;25.28;57.50;92469.16;2048766;70;20254;-74
2022/06/22 12:03:40;;;;;;;17.30;4.57;;;;;;;26.17;56.19;92464.91;2048933;70;20205;-73
2022/06/22 12:06:40;;;;;;;17.02;5.07;;;;;;;26.41;56.40;92464.16;2049327;70;20158;-73
2022/06/22 12:09:05;;;;;;;17.05;5.25;;;;;;;25.95;55.08;92453.41;2048918;70;20547;-73
2022/06/22 12:11:46;;;;;;;20.80;5.00;;;;;;;25.85;55.22;92454.84;2048602;70;20150;-74
2022/06/22 12:17:46;;;;;;;17.98;4.18;;;;;;;25.80;52.09;92452.69;2048945;70;20318;-73
2022/06/22 12:20:31;;;;;;;21.55;4.40;;;;;;;26.64;51.56;92446.81;2054186;69;20144;-73
2022/06/22 12:23:14;;;;;;;14.63;4.32;;;;;;;27.33;51.10;92444.34;2054234;69;20153;-73
2022/06/22 12:25:58;;;;;;;16.02;4.60;;;;;;;26.46;53.33;92450.47;2053914;69;20638;-73
2022/06/22 12:28:45;;;;;;;17.23;4.65;;;;;;;26.17;52.90;92450.50;2054293;69;20150;-72
2022/06/22 12:31:18;;;;;;;16.27;4.15;;;;;;;27.17;51.38;92443.69;2054356;69;20153;-73
2022/06/22 12:34:09;;;;;;;15.65;4.50;;;;;;;27.18;51.26;92434.31;2054427;70;20227;-72
2022/06/22 12:36:44;;;;;;;13.00;4.40;;;;;;;27.55;52.03;92436.97;2054348;69;20146;-75
2022/06/22 12:39:13;;;;;;;14.30;4.32;;;;;;;26.84;51.23;92414.94;2051360;70;20319;-76
2022/06/22 12:41:48;;;;;;;13.70;4.53;;;;;;;27.25;51.56;92420.53;2054288;69;20519;-73